createdAt,value
2018-02-24T00:00:02.020Z,14.01
2018-02-24T00:00:34.114Z,13.99
2018-02-24T00:01:06.177Z,14.06
2018-02-24T00:01:38.209Z,14.02
2018-02-24T00:02:10.257Z,14.13
2018-02-24T00:02:42.264Z,14.15
2018-02-24T00:03:14.315Z,14.09
2018-02-24T00:03:46.322Z,14.06
2018-02-24T00:04:18.405Z,14.05
2018-02-24T00:04:50.447Z,14.11
2018-02-24T00:05:22.591Z,14.08
2018-02-24T00:05:54.609Z,14.02
2018-02-24T00:06:26.632Z,14.12
2018-02-24T00:06:58.625Z,14.02
2018-02-24T00:07:30.630Z,14.06
2018-02-24T00:08:02.646Z,14.02
2018-02-24T00:08:34.781Z,14.12
2018-02-24T00:09:06.813Z,14.09
2018-02-24T00:09:38.792Z,13.97
2018-02-24T00:10:10.812Z,14.02
2018-02-24T00:10:42.845Z,14.05
2018-02-24T00:11:14.858Z,14.12
2018-02-24T00:11:46.936Z,14.06
2018-02-24T00:12:19.009Z,14.08
2018-02-24T00:12:51.066Z,14.03
2018-02-24T00:13:23.112Z,14.05
2018-02-24T00:13:55.232Z,14.06
2018-02-24T00:14:27.217Z,14.16
2018-02-24T00:15:02.490Z,14.03
2018-02-24T00:15:34.478Z,13.94
2018-02-24T00:16:06.488Z,13.95
2018-02-24T00:16:38.513Z,14.02
2018-02-24T00:17:10.566Z,14.08
2018-02-24T00:17:42.572Z,14.08
2018-02-24T00:18:14.617Z,14.05
2018-02-24T00:18:46.617Z,13.99
2018-02-24T00:19:18.671Z,14.01
2018-02-24T00:19:50.701Z,13.97
2018-02-24T00:20:22.867Z,14.05
2018-02-24T00:20:54.949Z,14.03
2018-02-24T00:21:26.962Z,14.05
2018-02-24T00:21:58.978Z,14.05
2018-02-24T00:22:31.025Z,13.97
2018-02-24T00:23:03.046Z,14.11
2018-02-24T00:23:35.052Z,13.94
2018-02-24T00:24:07.064Z,14.05
2018-02-24T00:24:39.099Z,14.01
2018-02-24T00:25:11.123Z,13.94
2018-02-24T00:25:43.117Z,14.02
2018-02-24T00:26:15.099Z,13.93
2018-02-24T00:26:47.156Z,13.97
2018-02-24T00:27:19.159Z,14.05
2018-02-24T00:27:51.156Z,14.06
2018-02-24T00:28:23.182Z,14.01
2018-02-24T00:28:55.179Z,13.91
2018-02-24T00:29:27.203Z,13.91
2018-02-24T00:29:59.233Z,13.97
2018-02-24T00:30:31.263Z,13.97
2018-02-24T00:31:03.336Z,13.95
2018-02-24T00:31:35.377Z,14.05
2018-02-24T00:32:07.407Z,14.09
2018-02-24T00:32:39.413Z,13.95
2018-02-24T00:33:11.492Z,13.99
2018-02-24T00:33:43.505Z,14.03
2018-02-24T00:34:15.502Z,14.02
2018-02-24T00:34:47.512Z,13.95
2018-02-24T00:35:19.536Z,13.93
2018-02-24T00:35:51.576Z,13.94
2018-02-24T00:36:23.590Z,14.08
2018-02-24T00:36:55.588Z,14.03
2018-02-24T00:37:27.630Z,13.91
2018-02-24T00:37:59.738Z,14.09
2018-02-24T00:38:31.770Z,13.99
2018-02-24T00:39:03.778Z,13.9
2018-02-24T00:39:35.790Z,13.99
2018-02-24T00:40:07.798Z,13.94
2018-02-24T00:40:39.793Z,14.03
2018-02-24T00:41:12.651Z,14.05
2018-02-24T00:41:44.656Z,13.93
2018-02-24T00:42:16.694Z,13.95
2018-02-24T00:42:48.730Z,14.05
2018-02-24T00:43:20.735Z,13.95
2018-02-24T00:43:52.771Z,13.95
2018-02-24T00:44:24.900Z,14.02
2018-02-24T00:44:57.032Z,13.88
2018-02-24T00:45:29.037Z,14.06
2018-02-24T00:46:01.021Z,13.95
2018-02-24T00:46:33.099Z,13.95
2018-02-24T00:47:05.091Z,14.03
2018-02-24T00:47:37.126Z,13.95
2018-02-24T00:48:09.142Z,14.03
2018-02-24T00:48:41.169Z,13.91
2018-02-24T00:49:13.203Z,13.9
2018-02-24T00:49:45.232Z,14.01
2018-02-24T00:50:17.238Z,13.94
2018-02-24T00:50:49.289Z,13.99
2018-02-24T00:51:21.310Z,13.94
2018-02-24T00:51:53.350Z,13.93
2018-02-24T00:52:25.372Z,14.01
2018-02-24T00:52:57.401Z,13.88
2018-02-24T00:53:29.407Z,13.99
2018-02-24T00:54:01.450Z,14.03
2018-02-24T00:54:33.479Z,14.01
2018-02-24T00:55:05.516Z,13.99
2018-02-24T00:55:37.474Z,13.88
2018-02-24T00:56:09.546Z,13.91
2018-02-24T00:56:41.585Z,13.97
2018-02-24T00:57:13.602Z,13.9
2018-02-24T00:57:45.750Z,13.9
2018-02-24T00:58:17.740Z,13.91
2018-02-24T00:58:49.738Z,13.94
2018-02-24T00:59:21.825Z,13.87
2018-02-24T00:59:53.834Z,13.97
2018-02-24T01:00:25.846Z,13.88
2018-02-24T01:00:57.848Z,13.94
2018-02-24T01:01:29.908Z,13.91
2018-02-24T01:02:01.910Z,13.93
2018-02-24T01:02:33.985Z,13.88
2018-02-24T01:03:06.156Z,13.87
2018-02-24T01:03:38.270Z,13.9
2018-02-24T01:04:10.291Z,13.94
2018-02-24T01:04:42.248Z,13.94
2018-02-24T01:05:14.277Z,13.9
2018-02-24T01:05:46.304Z,13.95
2018-02-24T01:06:18.341Z,13.94
2018-02-24T01:06:50.366Z,14.03
2018-02-24T01:07:22.379Z,13.88
2018-02-24T01:07:54.400Z,13.84
2018-02-24T01:08:26.399Z,13.88
2018-02-24T01:08:58.386Z,13.91
2018-02-24T01:09:30.411Z,13.94
2018-02-24T01:10:02.428Z,14.01
2018-02-24T01:10:34.546Z,13.99
2018-02-24T01:11:06.524Z,13.94
2018-02-24T01:11:38.544Z,13.99
2018-02-24T01:12:11.432Z,13.86
2018-02-24T01:12:43.456Z,13.88
2018-02-24T01:13:15.464Z,13.91
2018-02-24T01:13:47.476Z,13.87
2018-02-24T01:14:19.533Z,13.88
2018-02-24T01:14:52.249Z,13.95
2018-02-24T01:15:24.305Z,13.94
2018-02-24T01:15:56.302Z,13.94
2018-02-24T01:16:28.347Z,13.95
2018-02-24T01:17:00.398Z,13.91
2018-02-24T01:17:32.417Z,13.94
2018-02-24T01:18:04.437Z,13.9
2018-02-24T01:18:36.457Z,13.88
2018-02-24T01:19:08.489Z,13.99
2018-02-24T01:19:40.530Z,13.94
2018-02-24T01:20:12.547Z,13.99
2018-02-24T01:20:44.546Z,13.93
2018-02-24T01:21:16.533Z,13.94
2018-02-24T01:21:48.515Z,13.86
2018-02-24T01:22:20.545Z,13.86
2018-02-24T01:22:52.567Z,13.88
2018-02-24T01:23:24.616Z,13.88
2018-02-24T01:23:56.637Z,13.91
2018-02-24T01:24:28.676Z,13.95
2018-02-24T01:25:00.722Z,13.84
2018-02-24T01:25:32.815Z,13.9
2018-02-24T01:26:04.801Z,13.9
2018-02-24T01:26:36.813Z,13.91
2018-02-24T01:27:09.743Z,13.94
2018-02-24T01:27:41.778Z,13.91
2018-02-24T01:28:13.909Z,13.86
2018-02-24T01:28:45.939Z,13.87
2018-02-24T01:29:17.927Z,13.95
2018-02-24T01:29:49.997Z,13.95
2018-02-24T01:30:22.057Z,13.88
2018-02-24T01:30:54.130Z,13.83
2018-02-24T01:31:26.185Z,13.93
2018-02-24T01:31:58.249Z,13.87
2018-02-24T01:32:30.279Z,13.91
2018-02-24T01:33:02.309Z,13.84
2018-02-24T01:33:34.350Z,13.84
2018-02-24T01:34:06.428Z,13.86
2018-02-24T01:34:38.464Z,13.9
2018-02-24T01:35:10.517Z,13.93
2018-02-24T01:35:42.519Z,14.01
2018-02-24T01:36:14.527Z,13.88
2018-02-24T01:36:46.521Z,13.91
2018-02-24T01:37:18.569Z,13.86
2018-02-24T01:37:50.599Z,13.86
2018-02-24T01:38:22.649Z,13.91
2018-02-24T01:38:54.680Z,13.87
2018-02-24T01:39:26.714Z,13.9
2018-02-24T01:39:58.768Z,13.91
2018-02-24T01:40:30.764Z,13.84
2018-02-24T01:41:02.805Z,13.87
2018-02-24T01:41:34.810Z,13.91
2018-02-24T01:42:06.853Z,13.86
2018-02-24T01:42:38.925Z,13.88
2018-02-24T01:43:10.982Z,13.86
2018-02-24T01:43:43.008Z,13.87
2018-02-24T01:44:15.083Z,13.88
2018-02-24T01:44:47.211Z,13.94
2018-02-24T01:45:19.220Z,13.84
2018-02-24T01:45:51.212Z,13.93
2018-02-24T01:46:23.266Z,13.86
2018-02-24T01:46:55.276Z,13.86
2018-02-24T01:47:27.259Z,13.88
2018-02-24T01:47:59.253Z,13.87
2018-02-24T01:48:31.291Z,13.84
2018-02-24T01:49:03.345Z,13.87
2018-02-24T01:49:35.384Z,13.83
2018-02-24T01:50:07.406Z,13.97
2018-02-24T01:50:39.418Z,13.87
2018-02-24T01:51:11.447Z,13.94
2018-02-24T01:51:43.473Z,13.84
2018-02-24T01:52:15.465Z,13.94
2018-02-24T01:52:47.483Z,13.83
2018-02-24T01:53:19.507Z,13.94
2018-02-24T01:53:51.536Z,13.86
2018-02-24T01:54:23.613Z,13.9
2018-02-24T01:54:55.618Z,13.88
2018-02-24T01:55:27.602Z,13.88
2018-02-24T01:55:59.634Z,13.84
2018-02-24T01:56:31.646Z,13.94
2018-02-24T01:57:04.166Z,13.83
2018-02-24T01:57:36.235Z,13.83
2018-02-24T01:58:08.247Z,13.87
2018-02-24T01:58:40.217Z,13.94
2018-02-24T01:59:12.290Z,13.84
2018-02-24T01:59:44.349Z,13.83
2018-02-24T02:00:16.352Z,13.93
2018-02-24T02:00:48.395Z,13.84
2018-02-24T02:01:20.373Z,13.81
2018-02-24T02:01:52.387Z,13.81
2018-02-24T02:02:24.433Z,13.81
2018-02-24T02:02:56.533Z,13.84
2018-02-24T02:03:28.588Z,13.86
2018-02-24T02:04:00.561Z,13.84
2018-02-24T02:04:32.613Z,13.83
2018-02-24T02:05:04.690Z,13.94
2018-02-24T02:05:36.685Z,13.94
2018-02-24T02:06:08.702Z,13.79
2018-02-24T02:06:40.707Z,13.81
2018-02-24T02:07:12.719Z,13.83
2018-02-24T02:07:44.752Z,13.87
2018-02-24T02:08:16.871Z,13.84
2018-02-24T02:08:48.900Z,13.84
2018-02-24T02:09:20.929Z,13.87
2018-02-24T02:09:52.928Z,13.84
2018-02-24T02:10:24.922Z,13.79
2018-02-24T02:10:56.943Z,13.84
2018-02-24T02:11:28.975Z,13.83
2018-02-24T02:12:00.997Z,13.84
2018-02-24T02:12:33.055Z,13.84
2018-02-24T02:13:05.020Z,13.84
2018-02-24T02:13:37.072Z,13.84
2018-02-24T02:14:09.093Z,13.86
2018-02-24T02:14:41.219Z,13.86
2018-02-24T02:15:13.256Z,13.84
2018-02-24T02:15:45.312Z,13.84
2018-02-24T02:16:17.441Z,13.83
2018-02-24T02:16:49.480Z,13.87
2018-02-24T02:17:21.533Z,13.75
2018-02-24T02:17:53.576Z,13.84
2018-02-24T02:18:25.658Z,13.81
2018-02-24T02:18:57.736Z,13.84
2018-02-24T02:19:29.764Z,13.79
2018-02-24T02:20:01.885Z,13.83
2018-02-24T02:20:33.865Z,13.76
2018-02-24T02:21:05.906Z,13.88
2018-02-24T02:21:37.880Z,13.84
2018-02-24T02:22:09.962Z,13.84
2018-02-24T02:22:41.958Z,13.83
2018-02-24T02:23:14.007Z,13.72
2018-02-24T02:23:46.043Z,13.78
2018-02-24T02:24:18.137Z,13.76
2018-02-24T02:24:50.172Z,13.84
2018-02-24T02:25:22.204Z,13.87
2018-02-24T02:25:54.232Z,13.78
2018-02-24T02:26:26.288Z,13.78
2018-02-24T02:26:58.318Z,13.87
2018-02-24T02:27:30.352Z,13.86
2018-02-24T02:28:02.500Z,13.84
2018-02-24T02:28:34.672Z,13.76
2018-02-24T02:29:06.735Z,13.81
2018-02-24T02:29:38.757Z,13.84
2018-02-24T02:30:10.783Z,13.88
2018-02-24T02:30:42.819Z,13.84
2018-02-24T02:31:14.803Z,13.88
2018-02-24T02:31:46.782Z,13.83
2018-02-24T02:32:18.782Z,13.81
2018-02-24T02:32:50.824Z,13.83
2018-02-24T02:33:22.879Z,13.79
2018-02-24T02:33:54.964Z,13.76
2018-02-24T02:34:27.030Z,13.78
2018-02-24T02:34:59.039Z,13.86
2018-02-24T02:35:31.138Z,13.86
2018-02-24T02:36:03.769Z,13.84
2018-02-24T02:36:35.813Z,13.84
2018-02-24T02:37:07.897Z,13.83
2018-02-24T02:37:39.910Z,13.75
2018-02-24T02:38:11.987Z,13.81
2018-02-24T02:38:44.011Z,13.83
2018-02-24T02:39:16.067Z,13.86
2018-02-24T02:39:48.100Z,13.86
2018-02-24T02:40:20.124Z,13.75
2018-02-24T02:40:52.157Z,13.83
2018-02-24T02:41:24.190Z,13.83
2018-02-24T02:41:56.265Z,13.83
2018-02-24T02:42:28.283Z,13.75
2018-02-24T02:43:00.327Z,13.86
2018-02-24T02:43:32.342Z,13.81
2018-02-24T02:44:04.363Z,13.81
2018-02-24T02:44:36.384Z,13.84
2018-02-24T02:45:08.462Z,13.7
2018-02-24T02:45:40.465Z,13.81
2018-02-24T02:46:12.535Z,13.76
2018-02-24T02:46:44.564Z,13.79
2018-02-24T02:47:16.570Z,13.73
2018-02-24T02:47:48.587Z,13.79
2018-02-24T02:48:20.610Z,13.86
2018-02-24T02:48:52.623Z,13.81
2018-02-24T02:49:24.670Z,13.78
2018-02-24T02:49:56.726Z,13.76
2018-02-24T02:50:28.796Z,13.78
2018-02-24T02:51:00.958Z,13.73
2018-02-24T02:51:32.944Z,13.76
2018-02-24T02:52:04.972Z,13.75
2018-02-24T02:52:36.989Z,13.81
2018-02-24T02:53:08.993Z,13.76
2018-02-24T02:53:41.005Z,13.81
2018-02-24T02:54:13.172Z,13.7
2018-02-24T02:54:45.165Z,13.72
2018-02-24T02:55:17.205Z,13.69
2018-02-24T02:55:49.302Z,13.75
2018-02-24T02:56:21.395Z,13.7
2018-02-24T02:56:53.428Z,13.78
2018-02-24T02:57:25.468Z,13.73
2018-02-24T02:57:57.495Z,13.7
2018-02-24T02:58:29.504Z,13.76
2018-02-24T02:59:01.563Z,13.86
2018-02-24T02:59:33.582Z,13.84
2018-02-24T03:00:05.624Z,13.7
2018-02-24T03:00:37.636Z,13.7
2018-02-24T03:01:10.594Z,13.7
2018-02-24T03:01:42.724Z,13.69
2018-02-24T03:02:14.730Z,13.76
2018-02-24T03:02:46.788Z,13.7
2018-02-24T03:03:18.900Z,13.81
2018-02-24T03:03:51.015Z,13.75
2018-02-24T03:04:23.017Z,13.7
2018-02-24T03:04:55.035Z,13.79
2018-02-24T03:05:27.080Z,13.78
2018-02-24T03:05:59.921Z,13.73
2018-02-24T03:06:31.971Z,13.66
2018-02-24T03:07:03.993Z,13.78
2018-02-24T03:07:36.042Z,13.86
2018-02-24T03:08:08.076Z,13.83
2018-02-24T03:08:40.100Z,13.79
2018-02-24T03:09:12.064Z,13.7
2018-02-24T03:09:44.103Z,13.7
2018-02-24T03:10:16.109Z,13.76
2018-02-24T03:10:48.113Z,13.7
2018-02-24T03:11:20.140Z,13.7
2018-02-24T03:11:52.140Z,13.68
2018-02-24T03:12:24.187Z,13.73
2018-02-24T03:12:56.190Z,13.69
2018-02-24T03:13:28.205Z,13.72
2018-02-24T03:14:00.302Z,13.79
2018-02-24T03:14:32.337Z,13.76
2018-02-24T03:15:04.365Z,13.78
2018-02-24T03:15:36.411Z,13.66
2018-02-24T03:16:08.440Z,13.7
2018-02-24T03:16:40.489Z,13.72
2018-02-24T03:17:12.547Z,13.79
2018-02-24T03:17:44.545Z,13.69
2018-02-24T03:18:16.561Z,13.76
2018-02-24T03:18:48.581Z,13.72
2018-02-24T03:19:20.567Z,13.69
2018-02-24T03:19:52.634Z,13.65
2018-02-24T03:20:24.610Z,13.69
2018-02-24T03:20:56.633Z,13.75
2018-02-24T03:21:28.669Z,13.69
2018-02-24T03:22:00.699Z,13.7
2018-02-24T03:22:32.722Z,13.76
2018-02-24T03:23:05.303Z,13.66
2018-02-24T03:23:37.328Z,13.7
2018-02-24T03:24:09.344Z,13.83
2018-02-24T03:24:41.366Z,13.66
2018-02-24T03:25:13.394Z,13.69
2018-02-24T03:25:45.431Z,13.81
2018-02-24T03:26:17.459Z,13.69
2018-02-24T03:26:49.502Z,13.65
2018-02-24T03:27:21.553Z,13.68
2018-02-24T03:27:53.695Z,13.75
2018-02-24T03:28:25.734Z,13.75
2018-02-24T03:28:57.788Z,13.72
2018-02-24T03:29:29.811Z,13.69
2018-02-24T03:30:01.895Z,13.65
2018-02-24T03:30:34.037Z,13.7
2018-02-24T03:31:06.006Z,13.68
2018-02-24T03:31:38.045Z,13.73
2018-02-24T03:32:10.037Z,13.7
2018-02-24T03:32:42.087Z,13.73
2018-02-24T03:33:14.132Z,13.7
2018-02-24T03:33:46.164Z,13.7
2018-02-24T03:34:18.201Z,13.7
2018-02-24T03:34:50.216Z,13.66
2018-02-24T03:35:22.260Z,13.69
2018-02-24T03:35:54.439Z,13.7
2018-02-24T03:36:26.561Z,13.7
2018-02-24T03:36:58.601Z,13.76
2018-02-24T03:37:30.649Z,13.69
2018-02-24T03:38:02.660Z,13.79
2018-02-24T03:38:34.689Z,13.69
2018-02-24T03:39:06.689Z,13.65
2018-02-24T03:39:39.393Z,13.72
2018-02-24T03:40:11.435Z,13.69
2018-02-24T03:40:43.460Z,13.66
2018-02-24T03:41:15.508Z,13.76
2018-02-24T03:41:47.473Z,13.66
2018-02-24T03:42:19.528Z,13.65
2018-02-24T03:42:51.553Z,13.69
2018-02-24T03:43:23.609Z,13.66
2018-02-24T03:43:55.623Z,13.66
2018-02-24T03:44:27.694Z,13.65
2018-02-24T03:44:59.814Z,13.65
2018-02-24T03:45:31.873Z,13.68
2018-02-24T03:46:03.897Z,13.68
2018-02-24T03:46:35.935Z,13.62
2018-02-24T03:47:07.984Z,13.69
2018-02-24T03:47:40.033Z,13.66
2018-02-24T03:48:12.027Z,13.65
2018-02-24T03:48:44.066Z,13.7
2018-02-24T03:49:16.070Z,13.66
2018-02-24T03:49:48.188Z,13.69
2018-02-24T03:50:20.190Z,13.63
2018-02-24T03:50:52.221Z,13.7
2018-02-24T03:51:24.250Z,13.66
2018-02-24T03:51:56.264Z,13.68
2018-02-24T03:52:28.296Z,13.69
2018-02-24T03:53:00.304Z,13.68
2018-02-24T03:53:32.297Z,13.68
2018-02-24T03:54:05.114Z,13.66
2018-02-24T03:54:37.141Z,13.72
2018-02-24T03:55:09.215Z,13.69
2018-02-24T03:55:41.238Z,13.72
2018-02-24T03:56:13.271Z,13.73
2018-02-24T03:56:45.289Z,13.7
2018-02-24T03:57:17.308Z,13.7
2018-02-24T03:57:49.330Z,13.66
2018-02-24T03:58:21.370Z,13.66
2018-02-24T03:58:53.423Z,13.69
2018-02-24T03:59:25.421Z,13.7
2018-02-24T03:59:57.468Z,13.65
2018-02-24T04:00:29.540Z,13.65
2018-02-24T04:01:01.526Z,13.72
2018-02-24T04:01:33.586Z,13.65
2018-02-24T04:02:05.612Z,13.69
2018-02-24T04:02:37.639Z,13.7
2018-02-24T04:03:09.628Z,13.68
2018-02-24T04:03:41.759Z,13.68
2018-02-24T04:04:13.770Z,13.66
2018-02-24T04:04:45.768Z,13.66
2018-02-24T04:05:17.812Z,13.65
2018-02-24T04:05:49.886Z,13.68
2018-02-24T04:06:21.902Z,13.68
2018-02-24T04:06:53.948Z,13.75
2018-02-24T04:07:26.136Z,13.65
2018-02-24T04:07:58.245Z,13.66
2018-02-24T04:08:30.256Z,13.68
2018-02-24T04:09:02.286Z,13.66
2018-02-24T04:09:34.317Z,13.66
2018-02-24T04:10:06.398Z,13.66
2018-02-24T04:10:38.442Z,13.68
2018-02-24T04:11:10.450Z,13.69
2018-02-24T04:11:42.415Z,13.65
2018-02-24T04:12:14.412Z,13.69
2018-02-24T04:12:46.459Z,13.69
2018-02-24T04:13:18.586Z,13.7
2018-02-24T04:13:50.679Z,13.66
2018-02-24T04:14:22.715Z,13.69
2018-02-24T04:14:54.719Z,13.63
2018-02-24T04:15:26.704Z,13.73
2018-02-24T04:15:58.727Z,13.68
2018-02-24T04:16:30.822Z,13.68
2018-02-24T04:17:02.837Z,13.66
2018-02-24T04:17:34.852Z,13.7
2018-02-24T04:18:06.861Z,13.66
2018-02-24T04:18:38.868Z,13.65
2018-02-24T04:19:10.867Z,13.73
2018-02-24T04:19:42.869Z,13.68
2018-02-24T04:20:15.023Z,13.63
2018-02-24T04:20:47.120Z,13.66
2018-02-24T04:21:19.126Z,13.7
2018-02-24T04:21:51.133Z,13.65
2018-02-24T04:22:23.165Z,13.63
2018-02-24T04:22:55.171Z,13.68
2018-02-24T04:23:27.237Z,13.65
2018-02-24T04:23:59.344Z,13.66
2018-02-24T04:24:32.297Z,13.66
2018-02-24T04:25:04.340Z,13.65
2018-02-24T04:25:36.459Z,13.63
2018-02-24T04:26:08.498Z,13.69
2018-02-24T04:26:41.417Z,13.63
2018-02-24T04:27:13.440Z,13.66
2018-02-24T04:27:45.452Z,13.66
2018-02-24T04:28:17.445Z,13.69
2018-02-24T04:28:49.431Z,13.63
2018-02-24T04:29:21.438Z,13.72
2018-02-24T04:29:53.487Z,13.68
2018-02-24T04:30:25.516Z,13.75
2018-02-24T04:30:57.542Z,13.68
2018-02-24T04:31:29.580Z,13.68
2018-02-24T04:32:01.684Z,13.68
2018-02-24T04:32:33.730Z,13.73
2018-02-24T04:33:05.761Z,13.7
2018-02-24T04:33:37.814Z,13.63
2018-02-24T04:34:09.844Z,13.72
2018-02-24T04:34:41.866Z,13.65
2018-02-24T04:35:13.903Z,13.62
2018-02-24T04:35:45.924Z,13.66
2018-02-24T04:36:17.947Z,13.65
2018-02-24T04:36:50.016Z,13.6
2018-02-24T04:37:22.004Z,13.63
2018-02-24T04:37:54.192Z,13.68
2018-02-24T04:38:26.234Z,13.66
2018-02-24T04:38:58.235Z,13.65
2018-02-24T04:39:30.325Z,13.65
2018-02-24T04:40:02.346Z,13.66
2018-02-24T04:40:34.347Z,13.68
2018-02-24T04:41:06.335Z,13.6
2018-02-24T04:41:38.343Z,13.63
2018-02-24T04:42:10.352Z,13.6
2018-02-24T04:42:42.363Z,13.65
2018-02-24T04:43:14.398Z,13.57
2018-02-24T04:43:46.428Z,13.65
2018-02-24T04:44:18.475Z,13.6
2018-02-24T04:44:50.458Z,13.57
2018-02-24T04:45:22.477Z,13.63
2018-02-24T04:45:54.488Z,13.65
2018-02-24T04:46:26.529Z,13.58
2018-02-24T04:46:58.574Z,13.68
2018-02-24T04:47:30.558Z,13.58
2018-02-24T04:48:02.584Z,13.6
2018-02-24T04:48:34.608Z,13.57
2018-02-24T04:49:06.629Z,13.58
2018-02-24T04:49:38.787Z,13.58
2018-02-24T04:50:10.892Z,13.63
2018-02-24T04:50:42.921Z,13.58
2018-02-24T04:51:14.952Z,13.58
2018-02-24T04:51:46.935Z,13.6
2018-02-24T04:52:18.972Z,13.65
2018-02-24T04:52:51.004Z,13.62
2018-02-24T04:53:23.084Z,13.58
2018-02-24T04:53:55.106Z,13.55
2018-02-24T04:54:27.127Z,13.57
2018-02-24T04:54:59.161Z,13.55
2018-02-24T04:55:31.168Z,13.58
2018-02-24T04:56:03.208Z,13.58
2018-02-24T04:56:35.260Z,13.66
2018-02-24T04:57:07.274Z,13.62
2018-02-24T04:57:39.310Z,13.55
2018-02-24T04:58:11.377Z,13.63
2018-02-24T04:58:43.417Z,13.58
2018-02-24T04:59:15.472Z,13.6
2018-02-24T04:59:47.483Z,13.68
2018-02-24T05:00:19.498Z,13.6
2018-02-24T05:00:51.533Z,13.54
2018-02-24T05:01:23.632Z,13.54
2018-02-24T05:01:55.643Z,13.57
2018-02-24T05:02:27.674Z,13.58
2018-02-24T05:02:59.662Z,13.58
2018-02-24T05:03:31.652Z,13.54
2018-02-24T05:04:03.688Z,13.62
2018-02-24T05:04:35.702Z,13.65
2018-02-24T05:05:07.689Z,13.6
2018-02-24T05:05:39.733Z,13.55
2018-02-24T05:06:11.807Z,13.6
2018-02-24T05:06:43.858Z,13.57
2018-02-24T05:07:15.867Z,13.63
2018-02-24T05:07:47.924Z,13.62
2018-02-24T05:08:19.944Z,13.62
2018-02-24T05:08:51.981Z,13.53
2018-02-24T05:09:24.011Z,13.6
2018-02-24T05:09:56.045Z,13.65
2018-02-24T05:10:28.035Z,13.48
2018-02-24T05:11:00.026Z,13.55
2018-02-24T05:11:32.075Z,13.54
2018-02-24T05:12:04.076Z,13.54
2018-02-24T05:12:36.106Z,13.65
2018-02-24T05:13:08.626Z,13.55
2018-02-24T05:13:40.645Z,13.5
2018-02-24T05:14:12.664Z,13.55
2018-02-24T05:14:44.651Z,13.54
2018-02-24T05:15:16.630Z,13.58
2018-02-24T05:15:48.648Z,13.57
2018-02-24T05:16:20.767Z,13.53
2018-02-24T05:16:52.799Z,13.54
2018-02-24T05:17:24.806Z,13.51
2018-02-24T05:17:56.871Z,13.5
2018-02-24T05:18:28.884Z,13.5
2018-02-24T05:19:00.915Z,13.6
2018-02-24T05:19:32.954Z,13.57
2018-02-24T05:20:04.940Z,13.65
2018-02-24T05:20:36.963Z,13.53
2018-02-24T05:21:08.973Z,13.57
2018-02-24T05:21:41.011Z,13.51
2018-02-24T05:22:13.016Z,13.62
2018-02-24T05:22:45.054Z,13.48
2018-02-24T05:23:17.074Z,13.54
2018-02-24T05:23:49.105Z,13.54
2018-02-24T05:24:21.110Z,13.58
2018-02-24T05:24:53.966Z,13.54
2018-02-24T05:25:26.049Z,13.54
2018-02-24T05:25:58.058Z,13.53
2018-02-24T05:26:30.091Z,13.47
2018-02-24T05:27:02.641Z,13.58
2018-02-24T05:27:34.725Z,13.57
2018-02-24T05:28:06.772Z,13.6
2018-02-24T05:28:38.814Z,13.55
2018-02-24T05:29:10.832Z,13.48
2018-02-24T05:29:42.944Z,13.62
2018-02-24T05:30:14.918Z,13.55
2018-02-24T05:30:46.934Z,13.57
2018-02-24T05:31:19.007Z,13.51
2018-02-24T05:31:51.045Z,13.54
2018-02-24T05:32:23.069Z,13.55
2018-02-24T05:32:55.107Z,13.54
2018-02-24T05:33:27.232Z,13.51
2018-02-24T05:33:59.247Z,13.55
2018-02-24T05:34:32.234Z,13.54
2018-02-24T05:35:04.289Z,13.54
2018-02-24T05:35:36.324Z,13.54
2018-02-24T05:36:08.305Z,13.54
2018-02-24T05:36:40.340Z,13.48
2018-02-24T05:37:12.390Z,13.44
2018-02-24T05:37:44.411Z,13.57
2018-02-24T05:38:16.501Z,13.53
2018-02-24T05:38:48.597Z,13.55
2018-02-24T05:39:20.624Z,13.58
2018-02-24T05:39:52.645Z,13.48
2018-02-24T05:40:24.674Z,13.57
2018-02-24T05:40:56.692Z,13.58
2018-02-24T05:41:28.694Z,13.58
2018-02-24T05:42:00.762Z,13.53
2018-02-24T05:42:32.800Z,13.55
2018-02-24T05:43:04.799Z,13.54
2018-02-24T05:43:36.851Z,13.44
2018-02-24T05:44:08.854Z,13.53
2018-02-24T05:44:40.870Z,13.5
2018-02-24T05:45:12.898Z,13.5
2018-02-24T05:45:44.893Z,13.53
2018-02-24T05:46:16.923Z,13.48
2018-02-24T05:46:48.979Z,13.5
2018-02-24T05:47:20.985Z,13.5
2018-02-24T05:47:53.009Z,13.51
2018-02-24T05:48:25.082Z,13.48
2018-02-24T05:48:57.085Z,13.53
2018-02-24T05:49:29.110Z,13.54
2018-02-24T05:50:01.152Z,13.48
2018-02-24T05:50:33.172Z,13.53
2018-02-24T05:51:05.292Z,13.48
2018-02-24T05:51:37.337Z,13.51
2018-02-24T05:52:09.354Z,13.58
2018-02-24T05:52:41.359Z,13.53
2018-02-24T05:53:13.382Z,13.48
2018-02-24T05:53:45.422Z,13.5
2018-02-24T05:54:17.450Z,13.54
2018-02-24T05:54:49.531Z,13.51
2018-02-24T05:55:21.544Z,13.53
2018-02-24T05:55:53.534Z,13.44
2018-02-24T05:56:25.557Z,13.48
2018-02-24T05:56:57.535Z,13.51
2018-02-24T05:57:29.587Z,13.47
2018-02-24T05:58:01.682Z,13.47
2018-02-24T05:58:33.675Z,13.44
2018-02-24T05:59:05.674Z,13.47
2018-02-24T05:59:37.696Z,13.5
2018-02-24T06:00:09.730Z,13.5
2018-02-24T06:00:41.774Z,13.48
2018-02-24T06:01:13.803Z,13.4
2018-02-24T06:01:46.746Z,13.47
2018-02-24T06:02:18.761Z,13.45
2018-02-24T06:02:50.770Z,13.42
2018-02-24T06:03:22.809Z,13.48
2018-02-24T06:03:54.807Z,13.48
2018-02-24T06:04:26.846Z,13.48
2018-02-24T06:04:58.878Z,13.51
2018-02-24T06:05:30.877Z,13.45
2018-02-24T06:06:02.902Z,13.53
2018-02-24T06:06:34.919Z,13.47
2018-02-24T06:07:06.945Z,13.45
2018-02-24T06:07:38.999Z,13.45
2018-02-24T06:08:11.828Z,13.48
2018-02-24T06:08:43.866Z,13.47
2018-02-24T06:09:15.876Z,13.47
2018-02-24T06:09:47.922Z,13.47
2018-02-24T06:10:19.939Z,13.45
2018-02-24T06:10:51.963Z,13.45
2018-02-24T06:11:23.960Z,13.45
2018-02-24T06:11:55.979Z,13.47
2018-02-24T06:12:27.981Z,13.42
2018-02-24T06:12:59.991Z,13.48
2018-02-24T06:13:31.983Z,13.42
2018-02-24T06:14:04.006Z,13.5
2018-02-24T06:14:36.054Z,13.45
2018-02-24T06:15:08.065Z,13.47
2018-02-24T06:15:40.079Z,13.47
2018-02-24T06:16:12.095Z,13.45
2018-02-24T06:16:44.073Z,13.4
2018-02-24T06:17:16.170Z,13.44
2018-02-24T06:17:48.217Z,13.44
2018-02-24T06:18:20.271Z,13.48
2018-02-24T06:18:52.414Z,13.42
2018-02-24T06:19:24.396Z,13.39
2018-02-24T06:19:56.391Z,13.45
2018-02-24T06:20:28.412Z,13.47
2018-02-24T06:21:00.403Z,13.47
2018-02-24T06:21:32.404Z,13.48
2018-02-24T06:22:04.410Z,13.42
2018-02-24T06:22:36.569Z,13.44
2018-02-24T06:23:08.602Z,13.45
2018-02-24T06:23:40.615Z,13.45
2018-02-24T06:24:13.534Z,13.45
2018-02-24T06:24:45.556Z,13.47
2018-02-24T06:25:17.616Z,13.44
2018-02-24T06:25:49.659Z,13.47
2018-02-24T06:26:21.688Z,13.45
2018-02-24T06:26:53.795Z,13.4
2018-02-24T06:27:25.832Z,13.47
2018-02-24T06:27:57.838Z,13.4
2018-02-24T06:28:29.866Z,13.5
2018-02-24T06:29:01.884Z,13.44
2018-02-24T06:29:33.870Z,13.42
2018-02-24T06:30:05.886Z,13.5
2018-02-24T06:30:37.893Z,13.4
2018-02-24T06:31:09.935Z,13.42
2018-02-24T06:31:41.981Z,13.42
2018-02-24T06:32:14.079Z,13.45
2018-02-24T06:32:46.096Z,13.39
2018-02-24T06:33:18.146Z,13.4
2018-02-24T06:33:50.223Z,13.48
2018-02-24T06:34:23.046Z,13.4
2018-02-24T06:34:55.079Z,13.44
2018-02-24T06:35:27.107Z,13.47
2018-02-24T06:35:59.208Z,13.48
2018-02-24T06:36:31.244Z,13.51
2018-02-24T06:37:03.294Z,13.44
2018-02-24T06:37:35.316Z,13.48
2018-02-24T06:38:07.332Z,13.45
2018-02-24T06:38:39.355Z,13.5
2018-02-24T06:39:11.369Z,13.4
2018-02-24T06:39:43.379Z,13.42
2018-02-24T06:40:15.398Z,13.47
2018-02-24T06:40:47.549Z,13.45
2018-02-24T06:41:19.571Z,13.48
2018-02-24T06:41:51.591Z,13.45
2018-02-24T06:42:23.626Z,13.4
2018-02-24T06:42:55.648Z,13.48
2018-02-24T06:43:27.678Z,13.5
2018-02-24T06:43:59.846Z,13.47
2018-02-24T06:44:31.979Z,13.44
2018-02-24T06:45:03.947Z,13.48
2018-02-24T06:45:36.000Z,13.42
2018-02-24T06:46:08.037Z,13.44
2018-02-24T06:46:40.232Z,13.47
2018-02-24T06:47:12.259Z,13.42
2018-02-24T06:47:44.294Z,13.47
2018-02-24T06:48:16.304Z,13.47
2018-02-24T06:48:48.343Z,13.4
2018-02-24T06:49:20.445Z,13.45
2018-02-24T06:49:52.431Z,13.5
2018-02-24T06:50:24.438Z,13.47
2018-02-24T06:50:56.447Z,13.44
2018-02-24T06:51:28.478Z,13.48
2018-02-24T06:52:00.513Z,13.48
2018-02-24T06:52:32.578Z,13.47
2018-02-24T06:53:04.610Z,13.47
2018-02-24T06:53:36.609Z,13.45
2018-02-24T06:54:08.627Z,13.47